Time;durP1;ratioP1;P1;durP2;ratioP2;P2;SDS_P1;SDS_P2;PMS_P1;PMS_P2;Temp;Humidity;BMP_temperature;BMP_pressure;BME280_temperature;BME280_humidity;BME280_pressure;Samples;Min_cycle;Max_cycle;Signal;HPM_P1;HPM_P2
2023/01/31 00:01:35;;;;;;;;;0.50;0.50;;;;;5.97;71.31;102393.63;5008835;28;11785;-64
2023/01/31 00:04:07;;;;;;;;;0.25;0.00;;;;;5.98;72.17;102389.97;5011854;28;11186;-64
2023/01/31 00:06:37;;;;;;;;;1.00;0.00;;;;;5.98;71.59;102395.31;5010723;28;10877;-62
2023/01/31 00:09:06;;;;;;;;;0.00;0.00;;;;;5.96;71.93;102399.97;5012748;28;11080;-66
2023/01/31 00:11:33;;;;;;;;;1.00;0.00;;;;;5.93;71.74;102390.34;5012275;28;11014;-66
2023/01/31 00:14:01;;;;;;;;;0.00;0.00;;;;;5.91;72.30;102382.44;5010654;28;10965;-63
2023/01/31 00:16:28;;;;;;;;;0.00;0.00;;;;;5.91;72.03;102373.53;5027853;28;11057;-64
2023/01/31 00:18:54;;;;;;;;;1.25;0.00;;;;;5.94;72.34;102378.69;5006550;28;11071;-66
2023/01/31 00:21:27;;;;;;;;;0.00;0.00;;;;;5.95;72.64;102372.34;5017512;28;11065;-66
2023/01/31 00:23:55;;;;;;;;;1.25;0.00;;;;;5.94;72.28;102363.50;5005219;28;11323;-65
2023/01/31 00:26:25;;;;;;;;;0.75;0.00;;;;;5.93;72.52;102371.66;5011091;28;10828;-65
2023/01/31 00:28:53;;;;;;;;;3.50;1.50;;;;;5.91;72.89;102361.06;4988473;28;10982;-64
2023/01/31 00:31:21;;;;;;;;;0.00;0.00;;;;;5.88;72.21;102349.78;5011981;28;10934;-66
2023/01/31 00:33:49;;;;;;;;;0.00;0.00;;;;;5.85;72.44;102337.50;5010264;28;10920;-65
2023/01/31 00:36:19;;;;;;;;;1.00;0.00;;;;;5.82;72.22;102340.41;5011192;28;10948;-68
2023/01/31 00:38:51;;;;;;;;;0.00;0.00;;;;;5.75;72.63;102330.34;5004319;28;11065;-66
2023/01/31 00:41:20;;;;;;;;;0.00;0.00;;;;;5.71;73.04;102327.09;5023304;28;11033;-66
2023/01/31 00:43:47;;;;;;;;;0.50;0.00;;;;;5.68;72.62;102316.69;5011557;28;10961;-66
2023/01/31 00:46:13;;;;;;;;;1.00;1.00;;;;;5.67;73.64;102309.59;5009256;28;11025;-65
2023/01/31 00:48:40;;;;;;;;;2.00;0.50;;;;;5.65;73.29;102309.75;5004654;28;11123;-65
2023/01/31 00:51:06;;;;;;;;;1.00;0.00;;;;;5.63;73.56;102303.69;5001364;28;11027;-67
2023/01/31 00:53:33;;;;;;;;;0.50;0.00;;;;;5.63;73.65;102308.16;5004522;28;11529;-66
2023/01/31 00:56:15;;;;;;;;;0.00;0.00;;;;;5.64;73.72;102304.53;5009760;28;10961;-67
2023/01/31 00:58:42;;;;;;;;;1.75;0.50;;;;;5.64;73.28;102301.88;5006708;28;11063;-63
2023/01/31 01:01:15;;;;;;;;;2.00;0.00;;;;;5.65;73.66;102301.72;5010839;28;11664;-65
2023/01/31 01:03:44;;;;;;;;;0.00;0.00;;;;;5.65;73.67;102292.88;5002417;28;11245;-67
2023/01/31 01:06:12;;;;;;;;;0.00;0.00;;;;;5.64;73.44;102296.53;5011322;28;11038;-65
2023/01/31 01:08:41;;;;;;;;;0.00;0.00;;;;;5.56;73.28;102291.81;5009832;28;11025;-65
2023/01/31 01:11:14;;;;;;;;;1.00;1.00;;;;;5.51;73.53;102282.47;5012155;28;11019;-65
2023/01/31 01:13:41;;;;;;;;;2.00;1.00;;;;;5.43;73.93;102275.94;5010661;28;11273;-65
2023/01/31 01:16:11;;;;;;;;;1.00;1.00;;;;;5.42;74.27;102271.56;5011496;28;11110;-66
2023/01/31 01:18:37;;;;;;;;;3.00;1.25;;;;;5.43;74.00;102275.94;5001607;28;11123;-67
2023/01/31 01:21:09;;;;;;;;;1.50;1.00;;;;;5.47;74.34;102273.88;5005242;28;11139;-65
2023/01/31 01:23:37;;;;;;;;;0.25;0.25;;;;;5.49;73.84;102284.44;5025653;28;11110;-66
2023/01/31 01:26:04;;;;;;;;;0.00;0.00;;;;;5.51;74.54;102279.78;5009671;28;11129;-64
2023/01/31 01:28:34;;;;;;;;;0.00;0.00;;;;;5.51;73.96;102293.16;5010936;28;10876;-62
2023/01/31 01:31:06;;;;;;;;;0.75;0.75;;;;;5.49;73.75;102293.28;5010651;28;11437;-62
2023/01/31 01:33:33;;;;;;;;;1.75;1.00;;;;;5.49;74.15;102284.44;5007907;28;11214;-67
2023/01/31 01:36:01;;;;;;;;;1.00;0.00;;;;;5.50;73.83;102296.78;4997725;28;11193;-66
2023/01/31 01:38:27;;;;;;;;;4.00;2.00;;;;;5.49;74.12;102306.63;5010779;28;11214;-65
2023/01/31 01:40:54;;;;;;;;;0.00;0.00;;;;;5.49;74.36;102303.13;5003636;28;11108;-63
2023/01/31 01:43:38;;;;;;;;;1.75;1.00;;;;;5.48;74.16;102304.94;5006195;28;11871;-62
2023/01/31 01:46:06;;;;;;;;;0.25;0.25;;;;;5.45;74.25;102316.72;5004241;28;11103;-64
2023/01/31 01:48:33;;;;;;;;;3.25;0.00;;;;;5.40;74.70;102312.72;5008651;28;11048;-65
2023/01/31 01:51:04;;;;;;;;;1.00;1.00;;;;;5.40;74.50;102315.41;5007354;28;11143;-65
2023/01/31 01:53:33;;;;;;;;;1.75;0.50;;;;;5.44;74.75;102311.50;5005561;28;11112;-66
2023/01/31 01:56:05;;;;;;;;;4.50;1.25;;;;;5.43;74.64;102308.00;5006089;28;11130;-65
2023/01/31 01:58:52;;;;;;;;;2.50;1.00;;;;;5.42;74.34;102300.94;4992459;28;11207;-68
2023/01/31 02:01:21;;;;;;;;;2.75;1.00;;;;;5.41;75.01;102307.25;5007290;28;11150;-64
2023/01/31 02:03:50;;;;;;;;;2.00;1.00;;;;;5.43;74.91;102304.47;5006783;28;11202;-63
2023/01/31 02:06:17;;;;;;;;;0.50;0.50;;;;;5.37;74.21;102308.47;5006760;28;11216;-66
2023/01/31 02:08:44;;;;;;;;;0.75;0.75;;;;;5.36;74.61;102313.94;5019015;28;11179;-65
2023/01/31 02:11:22;;;;;;;;;3.00;2.00;;;;;5.34;75.21;102315.88;5007920;28;11242;-69
2023/01/31 02:13:51;;;;;;;;;0.50;0.50;;;;;5.31;75.67;102309.00;5007075;28;12213;-63
2023/01/31 02:16:18;;;;;;;;;0.25;0.25;;;;;5.29;75.52;102304.72;4977688;28;1026042;-62
2023/01/31 02:18:46;;;;;;;;;1.00;1.00;;;;;5.28;75.26;102308.38;5010159;28;8816;-66
2023/01/31 02:21:24;;;;;;;;;3.25;2.00;;;;;5.26;75.07;102297.81;5009716;28;11552;-67
2023/01/31 02:24:05;;;;;;;;;1.00;1.00;;;;;5.23;75.54;102297.25;5024893;28;11571;-62
2023/01/31 02:27:03;;;;;;;;;4.00;1.00;;;;;5.23;75.63;102292.75;4992327;28;11471;-65
2023/01/31 02:29:44;;;;;;;;;5.50;3.00;;;;;5.25;75.54;102284.59;5002786;28;11456;-61
2023/01/31 02:32:50;;;;;;;;;1.00;1.00;;;;;5.27;76.28;102280.84;5004781;28;11565;-66
2023/01/31 02:35:26;;;;;;;;;4.00;2.00;;;;;5.25;75.65;102280.09;5004035;28;11466;-65
2023/01/31 02:38:28;;;;;;;;;4.00;1.00;;;;;5.21;75.86;102281.31;5007080;28;11476;-63
2023/01/31 02:41:14;;;;;;;;;0.50;0.00;;;;;5.22;76.20;102277.66;5011631;28;11482;-64
2023/01/31 02:46:53;;;;;;;;;5.00;2.00;;;;;5.12;76.41;102274.06;5011477;28;11450;-68
2023/01/31 02:49:33;;;;;;;;;6.50;2.50;;;;;5.14;76.21;102277.44;5014258;28;11193;-65
2023/01/31 02:52:25;;;;;;;;;3.50;3.50;;;;;5.16;76.39;102271.03;5006257;28;11515;-65
2023/01/31 02:57:57;;;;;;;;;4.00;2.00;;;;;5.20;76.16;102268.97;5009746;28;11106;-68
2023/01/31 03:00:25;;;;;;;;;4.00;1.75;;;;;5.15;76.63;102274.66;5011130;28;11484;-63
2023/01/31 03:02:52;;;;;;;;;3.75;1.00;;;;;5.16;76.80;102270.19;5001279;28;11391;-65
2023/01/31 03:05:19;;;;;;;;;4.00;1.50;;;;;5.18;76.90;102276.22;5025869;28;11124;-65
2023/01/31 03:07:58;;;;;;;;;4.00;4.00;;;;;5.20;76.83;102263.63;5017990;28;11308;-63
2023/01/31 03:10:44;;;;;;;;;3.25;2.00;;;;;5.20;77.10;102255.59;5017328;28;11425;-64
2023/01/31 03:13:45;;;;;;;;;4.25;2.00;;;;;5.23;76.99;102258.03;5015581;28;11484;-66
2023/01/31 03:19:12;;;;;;;;;4.00;4.00;;;;;5.19;77.36;102246.75;5012056;28;11413;-64
2023/01/31 03:21:56;;;;;;;;;3.50;1.00;;;;;5.19;77.48;102248.59;5008553;28;11495;-64
2023/01/31 03:24:25;;;;;;;;;3.75;3.75;;;;;5.21;77.58;102241.28;5015131;28;11457;-64
2023/01/31 03:26:56;;;;;;;;;4.00;2.00;;;;;5.24;77.70;102243.72;5005899;28;11439;-65
2023/01/31 03:29:25;;;;;;;;;7.25;4.00;;;;;5.19;77.48;102225.41;5033852;28;11425;-64
2023/01/31 03:31:57;;;;;;;;;2.00;2.00;;;;;5.19;77.73;102228.06;5013048;28;12191;-65
2023/01/31 03:34:24;;;;;;;;;8.00;6.50;;;;;5.19;77.55;102225.41;5016781;28;11498;-66
2023/01/31 03:37:06;;;;;;;;;3.50;2.00;;;;;5.20;78.15;102226.25;5001556;28;11597;-66
2023/01/31 03:40:04;;;;;;;;;7.25;5.75;;;;;5.19;78.07;102230.75;5006977;28;11478;-66
2023/01/31 03:42:46;;;;;;;;;2.25;2.25;;;;;5.15;78.05;102221.28;5011217;28;11502;-66
2023/01/31 03:45:37;;;;;;;;;9.75;5.25;;;;;5.14;78.73;102216.91;5012258;28;11629;-65
2023/01/31 03:48:12;;;;;;;;;5.00;3.50;;;;;5.18;78.69;102213.00;5012100;28;11489;-68
2023/01/31 03:50:48;;;;;;;;;6.00;4.50;;;;;5.18;78.84;102215.66;5031127;28;12711;-65
2023/01/31 03:53:26;;;;;;;;;2.50;1.75;;;;;5.19;79.29;102201.38;5004802;28;11498;-65
2023/01/31 03:56:25;;;;;;;;;6.50;5.00;;;;;5.20;78.88;102200.41;5019689;28;11534;-66
2023/01/31 03:58:58;;;;;;;;;4.50;3.00;;;;;5.20;79.01;102199.56;5013798;28;11591;-66
2023/01/31 04:01:28;;;;;;;;;7.50;4.75;;;;;5.23;79.30;102199.31;5017611;28;11457;-65
2023/01/31 04:04:00;;;;;;;;;3.50;3.50;;;;;5.27;79.15;102199.91;5010052;28;11447;-65
2023/01/31 04:06:27;;;;;;;;;5.00;4.25;;;;;5.29;79.36;102193.44;5016126;28;11472;-65
2023/01/31 04:08:54;;;;;;;;;4.50;4.50;;;;;5.32;79.20;102192.34;5004811;28;11477;-66
2023/01/31 04:11:24;;;;;;;;;5.25;3.50;;;;;5.33;79.32;102194.88;5014169;28;11188;-66
2023/01/31 04:13:51;;;;;;;;;5.00;4.00;;;;;5.36;79.20;102191.97;5012505;28;11607;-65
2023/01/31 04:16:17;;;;;;;;;7.25;3.50;;;;;5.38;79.45;102198.00;5008588;28;12227;-66
2023/01/31 04:18:44;;;;;;;;;5.50;5.00;;;;;5.41;79.75;102207.59;5005478;28;11525;-67
2023/01/31 04:21:13;;;;;;;;;4.50;3.50;;;;;5.41;79.15;102195.09;5009902;28;11461;-66
2023/01/31 04:23:39;;;;;;;;;5.75;5.00;;;;;5.42;79.34;102194.13;5010839;28;11447;-65
2023/01/31 04:26:05;;;;;;;;;6.00;5.00;;;;;5.45;79.48;102193.03;5008726;28;12159;-66
2023/01/31 04:28:32;;;;;;;;;5.00;4.75;;;;;5.46;79.82;102174.19;5018195;28;11434;-66
2023/01/31 04:30:58;;;;;;;;;4.25;4.00;;;;;5.53;79.73;102189.72;5009656;28;11566;-66
2023/01/31 04:33:25;;;;;;;;;6.50;4.75;;;;;5.53;79.78;102176.38;5008695;28;11472;-68
2023/01/31 04:35:52;;;;;;;;;5.00;3.00;;;;;5.55;79.42;102171.72;5015439;28;11445;-65
2023/01/31 04:38:18;;;;;;;;;6.75;4.25;;;;;5.57;79.61;102167.13;5014921;28;11426;-65
2023/01/31 04:40:45;;;;;;;;;5.25;4.00;;;;;5.57;79.18;102175.13;5005586;28;11559;-65
2023/01/31 04:43:12;;;;;;;;;8.50;4.50;;;;;5.57;80.25;102164.44;5019647;28;11454;-64
2023/01/31 04:45:38;;;;;;;;;7.00;6.00;;;;;5.59;80.43;102171.38;5006525;28;11471;-66
2023/01/31 04:48:06;;;;;;;;;1.75;1.75;;;;;5.58;80.06;102161.63;5009328;28;11452;-68
2023/01/31 04:50:33;;;;;;;;;7.00;6.50;;;;;5.59;80.34;102162.47;5013811;28;11449;-66
2023/01/31 04:52:59;;;;;;;;;7.00;6.50;;;;;5.59;80.92;102165.16;5010663;28;11440;-68
2023/01/31 04:55:26;;;;;;;;;4.25;4.25;;;;;5.64;80.92;102173.66;5017639;28;11514;-66
2023/01/31 04:57:53;;;;;;;;;5.25;4.00;;;;;5.57;80.83;102167.97;5014961;28;11443;-65
2023/01/31 05:00:20;;;;;;;;;5.00;4.00;;;;;5.68;81.38;102169.75;5005204;28;11568;-64
2023/01/31 05:02:46;;;;;;;;;3.50;3.50;;;;;5.72;80.90;102160.50;5011061;28;11490;-63
2023/01/31 05:05:13;;;;;;;;;4.50;3.00;;;;;5.70;80.99;102159.75;5006217;28;13279;-62
2023/01/31 05:07:39;;;;;;;;;7.75;5.00;;;;;5.75;80.78;102156.69;5019197;28;11579;-67
2023/01/31 05:10:06;;;;;;;;;6.50;4.75;;;;;5.80;81.15;102162.50;5010491;28;11429;-64
2023/01/31 05:12:33;;;;;;;;;4.75;4.00;;;;;5.85;80.88;102157.63;5019800;28;11518;-64
2023/01/31 05:15:00;;;;;;;;;5.25;4.50;;;;;5.89;80.84;102151.88;5000923;28;12425;-68
2023/01/31 05:17:28;;;;;;;;;4.00;2.25;;;;;5.91;80.50;102147.25;5010300;28;11483;-67
2023/01/31 05:19:57;;;;;;;;;3.50;3.00;;;;;5.93;80.19;102142.66;5007704;28;11155;-68
2023/01/31 05:22:23;;;;;;;;;1.25;1.25;;;;;5.96;79.99;102141.53;5012286;28;11162;-68
2023/01/31 05:24:50;;;;;;;;;6.25;4.00;;;;;5.95;79.34;102145.19;5009700;28;11104;-66
2023/01/31 05:27:18;;;;;;;;;2.50;2.50;;;;;6.00;79.13;102147.47;5013897;28;11080;-67
2023/01/31 05:29:44;;;;;;;;;1.00;1.00;;;;;6.00;79.59;102151.00;5010699;28;11040;-67
2023/01/31 05:32:12;;;;;;;;;3.00;1.75;;;;;6.03;79.54;102153.38;5020060;28;10863;-67
2023/01/31 05:34:38;;;;;;;;;4.50;4.50;;;;;5.99;78.92;102159.97;5006783;28;11273;-66
2023/01/31 05:37:05;;;;;;;;;1.00;1.00;;;;;5.99;78.84;102153.78;5023519;28;11165;-67
2023/01/31 05:39:31;;;;;;;;;2.00;0.50;;;;;6.01;78.81;102150.00;5001081;28;11114;-67
2023/01/31 05:41:58;;;;;;;;;1.50;1.50;;;;;6.04;78.78;102133.72;5014207;28;10863;-68
2023/01/31 05:44:24;;;;;;;;;7.00;4.50;;;;;6.07;78.54;102125.41;5002620;28;11695;-67
2023/01/31 05:46:51;;;;;;;;;2.00;2.00;;;;;6.05;79.04;102123.88;5002609;28;10950;-67
2023/01/31 05:49:17;;;;;;;;;4.00;1.00;;;;;6.07;78.76;102135.25;5009277;28;10978;-68
2023/01/31 05:51:44;;;;;;;;;4.25;3.00;;;;;6.07;78.70;102135.25;5004451;28;11159;-68
2023/01/31 05:54:11;;;;;;;;;2.50;1.00;;;;;6.12;78.58;102130.38;5010330;28;11140;-67
2023/01/31 05:56:38;;;;;;;;;4.50;4.00;;;;;6.11;79.04;102117.97;5013451;28;11100;-66
2023/01/31 05:59:05;;;;;;;;;4.50;1.50;;;;;5.95;79.42;102115.78;5013311;28;11028;-68
2023/01/31 06:01:31;;;;;;;;;1.50;1.50;;;;;6.04;79.79;102114.16;5001812;28;11040;-68
2023/01/31 06:03:57;;;;;;;;;3.00;2.00;;;;;6.03;79.14;102110.59;5001352;28;11052;-65
2023/01/31 06:06:24;;;;;;;;;7.50;3.50;;;;;6.07;79.72;102104.00;5006558;28;10983;-67
2023/01/31 06:08:51;;;;;;;;;4.00;2.00;;;;;6.09;79.64;102111.91;5008287;28;11039;-67
2023/01/31 06:11:17;;;;;;;;;2.00;1.00;;;;;6.16;79.00;102111.25;5014485;28;10810;-67
2023/01/31 06:13:44;;;;;;;;;10.75;2.50;;;;;6.10;79.02;102105.59;5011491;28;10791;-68
2023/01/31 06:16:11;;;;;;;;;4.75;1.75;;;;;6.12;79.32;102104.47;5010583;28;11062;-67
2023/01/31 06:18:38;;;;;;;;;3.00;1.75;;;;;6.16;79.19;102107.75;5006865;28;10902;-66
2023/01/31 06:21:04;;;;;;;;;3.00;1.50;;;;;6.16;79.48;102107.75;5008432;28;10725;-68
2023/01/31 06:23:33;;;;;;;;;5.00;4.00;;;;;6.17;79.24;102109.44;5018998;28;10904;-67
2023/01/31 06:25:59;;;;;;;;;9.50;7.25;;;;;6.15;80.29;102104.19;5009649;28;11048;-67
2023/01/31 06:28:26;;;;;;;;;5.00;4.00;;;;;6.21;79.45;102100.16;5007809;28;11193;-67
2023/01/31 06:30:53;;;;;;;;;3.50;3.50;;;;;6.12;79.24;102093.78;5007483;28;11232;-69
2023/01/31 06:33:19;;;;;;;;;8.25;6.00;;;;;6.11;79.61;102083.22;5007404;28;12042;-67
2023/01/31 06:35:49;;;;;;;;;6.75;2.75;;;;;6.07;79.72;102074.63;5013420;28;11125;-69
2023/01/31 06:38:16;;;;;;;;;2.50;2.50;;;;;6.12;80.22;102068.88;5009067;28;11103;-68
2023/01/31 06:40:42;;;;;;;;;5.25;1.75;;;;;6.14;79.88;102066.91;5007354;28;11012;-69
2023/01/31 06:43:09;;;;;;;;;5.00;4.00;;;;;6.17;79.95;102069.31;5010535;28;11067;-68
2023/01/31 06:45:36;;;;;;;;;4.75;4.25;;;;;6.18;79.46;102061.16;5005697;28;11202;-66
2023/01/31 06:48:03;;;;;;;;;3.75;2.00;;;;;6.12;79.91;102063.53;5010684;28;11790;-68
2023/01/31 06:50:29;;;;;;;;;4.00;4.00;;;;;6.15;80.31;102073.94;5005256;28;11580;-67
2023/01/31 06:52:58;;;;;;;;;1.50;1.50;;;;;6.15;80.33;102065.91;5006262;28;11122;-67
2023/01/31 06:55:24;;;;;;;;;1.75;1.75;;;;;6.15;79.61;102069.44;5003348;28;11194;-67
2023/01/31 06:57:51;;;;;;;;;4.00;2.50;;;;;6.09;80.57;102053.94;4994803;28;10972;-67
2023/01/31 07:00:18;;;;;;;;;8.00;5.00;;;;;6.16;80.46;102064.97;5003625;28;10937;-67
2023/01/31 07:02:45;;;;;;;;;2.00;1.25;;;;;6.15;79.99;102068.59;4998798;28;11800;-67
2023/01/31 07:05:12;;;;;;;;;4.25;2.00;;;;;6.18;79.81;102061.16;4999196;28;10865;-67
2023/01/31 07:07:39;;;;;;;;;6.00;4.00;;;;;6.15;80.16;102069.44;5006579;28;10816;-66
2023/01/31 07:10:06;;;;;;;;;4.00;1.50;;;;;6.16;80.46;102073.81;5009376;28;10978;-67
2023/01/31 07:12:33;;;;;;;;;6.25;2.75;;;;;6.10;81.71;102065.50;5010145;28;10992;-66
2023/01/31 07:14:59;;;;;;;;;1.25;1.25;;;;;6.07;81.02;102061.25;5009048;28;11091;-68
2023/01/31 07:17:26;;;;;;;;;3.75;2.50;;;;;6.09;81.59;102063.81;4995043;28;11065;-67
2023/01/31 07:19:53;;;;;;;;;1.50;1.50;;;;;6.11;81.69;102054.66;5003535;28;10992;-66
2023/01/31 07:22:19;;;;;;;;;1.50;1.50;;;;;6.09;81.42;102053.13;5003262;28;11001;-67
2023/01/31 07:24:47;;;;;;;;;4.50;2.00;;;;;6.09;81.94;102056.63;5001218;28;10977;-68
2023/01/31 07:27:14;;;;;;;;;5.00;1.25;;;;;6.06;82.50;102045.34;5007312;28;10941;-68
2023/01/31 07:29:40;;;;;;;;;3.00;2.00;;;;;6.08;82.24;102046.91;5003717;28;10899;-67
2023/01/31 07:32:07;;;;;;;;;1.75;1.75;;;;;6.10;82.94;102041.44;5001521;28;11638;-69
2023/01/31 07:34:34;;;;;;;;;3.50;3.50;;;;;6.20;82.55;102031.63;5007548;28;11029;-66
2023/01/31 07:37:00;;;;;;;;;2.00;2.00;;;;;6.22;81.67;102043.00;5007353;28;11260;-67
2023/01/31 07:39:28;;;;;;;;;3.00;3.00;;;;;6.18;81.17;102037.09;5003916;28;10875;-67
2023/01/31 07:41:55;;;;;;;;;4.25;2.50;;;;;6.16;81.84;102040.91;5005300;28;11719;-67
2023/01/31 07:44:23;;;;;;;;;4.25;4.00;;;;;6.14;82.16;102024.13;5021519;28;11013;-67
2023/01/31 07:46:50;;;;;;;;;3.50;1.00;;;;;6.17;81.60;102023.88;5019185;28;10962;-68
2023/01/31 07:49:17;;;;;;;;;2.00;1.00;;;;;6.16;80.91;102012.34;5005612;28;10832;-68
2023/01/31 07:51:43;;;;;;;;;1.00;1.00;;;;;6.16;81.44;102014.16;5005607;28;11286;-66
2023/01/31 07:54:10;;;;;;;;;5.00;2.00;;;;;6.10;81.49;102010.19;5006096;28;10924;-69
2023/01/31 07:56:37;;;;;;;;;1.00;1.00;;;;;6.03;81.08;102018.88;5005733;28;10951;-69
2023/01/31 07:59:04;;;;;;;;;8.50;2.75;;;;;6.00;81.39;102022.69;5005577;28;11141;-67
2023/01/31 08:04:17;;;;;;;;;1.00;1.00;;;;;6.00;81.63;102017.34;5002189;28;10901;-68
2023/01/31 08:06:49;;;;;;;;;4.25;4.25;;;;;6.07;81.36;102010.47;5001282;28;10922;-69
2023/01/31 08:09:15;;;;;;;;;4.00;1.25;;;;;6.06;81.38;102010.59;5005926;28;11953;-69
2023/01/31 08:11:42;;;;;;;;;4.00;4.00;;;;;6.08;80.95;102001.47;5007320;28;10950;-68
2023/01/31 08:14:09;;;;;;;;;3.00;1.00;;;;;6.07;81.45;101999.75;5004740;28;11908;-67
2023/01/31 08:16:35;;;;;;;;;4.00;1.75;;;;;6.03;81.04;101987.66;5006335;28;10902;-68
2023/01/31 08:19:02;;;;;;;;;2.50;1.00;;;;;6.11;81.55;102001.19;5003270;28;11078;-65
2023/01/31 08:21:29;;;;;;;;;4.00;1.00;;;;;6.12;81.15;101989.53;5003558;28;10875;-68
2023/01/31 08:23:56;;;;;;;;;1.00;1.00;;;;;6.17;81.38;101991.78;5006001;28;10855;-67
2023/01/31 08:26:22;;;;;;;;;1.00;1.00;;;;;6.24;81.23;102005.44;5002631;28;10918;-66
2023/01/31 08:28:50;;;;;;;;;0.00;0.00;;;;;6.30;80.95;101996.88;5005250;28;10754;-69
2023/01/31 08:31:20;;;;;;;;;2.00;2.00;;;;;6.32;81.09;102009.13;5005349;28;10853;-67
2023/01/31 08:33:50;;;;;;;;;3.50;1.00;;;;;6.25;81.88;101980.41;5005241;28;10964;-68
2023/01/31 08:36:22;;;;;;;;;1.75;1.75;;;;;6.25;81.44;101991.09;5001343;28;10747;-68
2023/01/31 08:38:49;;;;;;;;;1.00;1.00;;;;;6.27;82.03;101979.28;5006150;28;10831;-68
2023/01/31 08:41:18;;;;;;;;;2.00;1.00;;;;;6.30;81.83;101986.19;5003205;28;10968;-66
2023/01/31 08:43:45;;;;;;;;;1.00;1.00;;;;;6.38;81.80;102002.38;5003649;28;10988;-69
2023/01/31 08:46:28;;;;;;;;;2.50;0.50;;;;;6.44;81.68;102005.34;5005116;28;10944;-69
2023/01/31 08:48:56;;;;;;;;;4.00;2.00;;;;;6.43;82.16;102000.97;5000928;28;10949;-69
2023/01/31 08:51:23;;;;;;;;;1.00;1.00;;;;;6.48;82.09;101995.19;5005970;28;10910;-67
2023/01/31 08:53:50;;;;;;;;;3.25;2.00;;;;;6.52;82.22;102007.31;5006954;28;10804;-69
2023/01/31 08:56:18;;;;;;;;;4.00;1.75;;;;;6.52;82.04;101980.56;5004535;28;10837;-70
2023/01/31 08:58:44;;;;;;;;;1.00;1.00;;;;;6.50;82.17;101976.34;5019818;28;10926;-68
2023/01/31 09:01:14;;;;;;;;;1.25;1.00;;;;;6.57;82.50;101974.81;5004882;28;10831;-69
2023/01/31 09:03:41;;;;;;;;;1.25;1.25;;;;;6.55;81.84;101961.56;5002797;28;10721;-67
2023/01/31 09:06:14;;;;;;;;;2.00;2.00;;;;;6.59;82.78;101956.78;5000616;28;10718;-68
2023/01/31 09:08:40;;;;;;;;;2.00;2.00;;;;;6.64;81.96;101952.72;5005607;28;10781;-69
2023/01/31 09:11:08;;;;;;;;;5.00;2.00;;;;;6.65;81.74;101943.69;5005145;28;10786;-69
2023/01/31 09:13:34;;;;;;;;;3.50;3.50;;;;;6.64;82.12;101951.84;5000912;28;10786;-66
2023/01/31 09:16:06;;;;;;;;;5.25;3.50;;;;;6.63;81.88;101956.34;5003541;28;10791;-67
2023/01/31 09:18:37;;;;;;;;;6.00;3.50;;;;;6.70;81.66;101959.31;5002731;28;10796;-67
2023/01/31 09:21:10;;;;;;;;;3.00;3.00;;;;;6.58;82.42;101953.28;5003884;28;11736;-67
2023/01/31 09:23:37;;;;;;;;;7.75;5.75;;;;;6.64;82.53;101966.09;5005424;28;10990;-66
2023/01/31 09:26:08;;;;;;;;;10.00;5.50;;;;;6.64;82.69;101951.84;5002537;28;10796;-67
2023/01/31 09:28:34;;;;;;;;;4.00;4.00;;;;;6.66;82.80;101948.06;5002205;28;10808;-70
2023/01/31 09:31:05;;;;;;;;;6.00;4.25;;;;;6.78;82.18;101938.06;5003445;28;10968;-67
2023/01/31 09:33:33;;;;;;;;;3.75;3.00;;;;;6.73;82.68;101940.31;5005456;28;10930;-67
2023/01/31 09:36:02;;;;;;;;;6.00;4.25;;;;;6.72;83.04;101940.44;5004696;28;10749;-68
2023/01/31 09:38:29;;;;;;;;;6.25;4.25;;;;;6.71;83.55;101936.09;5005985;28;10796;-67
2023/01/31 09:40:59;;;;;;;;;5.00;3.00;;;;;6.72;83.74;101929.72;5008170;28;10879;-68
2023/01/31 09:43:33;;;;;;;;;6.50;3.75;;;;;6.77;82.67;101939.03;5002528;28;10786;-68
2023/01/31 09:46:03;;;;;;;;;4.00;2.00;;;;;6.85;83.77;101936.50;5003010;28;10779;-68
2023/01/31 09:48:34;;;;;;;;;7.25;4.00;;;;;6.90;82.55;101949.44;5002243;28;10782;-67
2023/01/31 09:51:02;;;;;;;;;3.50;1.25;;;;;6.91;82.88;101949.28;5003286;28;10703;-68
2023/01/31 09:53:36;;;;;;;;;4.50;4.00;;;;;6.99;82.63;101939.72;5003996;28;10643;-67
2023/01/31 09:56:17;;;;;;;;;3.75;2.00;;;;;6.94;82.86;101935.63;5003859;28;10671;-68
2023/01/31 09:59:11;;;;;;;;;4.25;2.00;;;;;6.97;83.30;101945.22;5003756;28;10656;-68
2023/01/31 10:01:43;;;;;;;;;6.50;4.00;;;;;6.90;83.19;101931.56;5001744;28;10702;-68
2023/01/31 10:04:37;;;;;;;;;6.25;5.00;;;;;7.04;82.75;101943.63;5018549;28;10844;-68
2023/01/31 10:07:26;;;;;;;;;4.50;3.50;;;;;6.98;83.66;101946.06;5002731;28;10836;-68
2023/01/31 10:09:59;;;;;;;;;6.00;2.00;;;;;7.01;83.10;101943.06;5001877;28;10875;-67
2023/01/31 10:12:39;;;;;;;;;8.25;4.75;;;;;7.00;83.30;101936.88;5003440;28;10799;-67
2023/01/31 10:15:15;;;;;;;;;3.00;3.00;;;;;7.07;83.39;101931.81;4999116;28;10862;-67
2023/01/31 10:17:48;;;;;;;;;5.00;4.25;;;;;7.11;83.43;101941.22;5001735;28;10802;-68
2023/01/31 10:20:33;;;;;;;;;8.50;4.75;;;;;7.08;83.23;101936.16;5002737;28;10707;-68
2023/01/31 10:23:18;;;;;;;;;4.00;4.00;;;;;7.12;83.46;101935.72;5005872;28;10770;-67
2023/01/31 10:25:45;;;;;;;;;2.50;1.00;;;;;7.14;83.46;101923.03;5003522;28;10773;-67
2023/01/31 10:28:21;;;;;;;;;5.75;4.00;;;;;7.11;84.17;101931.34;5002880;28;11015;-66
2023/01/31 10:31:10;;;;;;;;;9.00;4.50;;;;;7.16;83.48;101925.56;5002762;28;10781;-67
2023/01/31 10:33:39;;;;;;;;;4.00;2.50;;;;;7.14;84.17;101930.25;5003612;28;10961;-66
2023/01/31 10:36:39;;;;;;;;;3.00;1.50;;;;;7.15;83.48;101930.09;5001026;28;10905;-67
2023/01/31 10:39:29;;;;;;;;;4.00;2.00;;;;;7.14;83.49;101927.56;5002099;28;10954;-67
2023/01/31 10:42:14;;;;;;;;;6.50;2.00;;;;;7.18;83.52;101935.16;5003086;28;10606;-68
2023/01/31 10:44:52;;;;;;;;;3.50;2.50;;;;;7.24;83.52;101943.59;5008450;28;10810;-68
2023/01/31 10:47:23;;;;;;;;;3.25;2.50;;;;;7.18;83.28;101943.19;5003878;28;10839;-68
2023/01/31 10:49:50;;;;;;;;;1.00;1.00;;;;;7.23;82.95;101939.22;5002725;28;10856;-68
2023/01/31 10:52:39;;;;;;;;;3.50;3.50;;;;;7.24;83.10;101947.09;5001316;28;11354;-68
2023/01/31 10:55:24;;;;;;;;;4.00;4.00;;;;;7.34;82.72;101955.13;5003714;28;10747;-68
2023/01/31 10:57:52;;;;;;;;;4.75;2.50;;;;;7.25;82.58;101950.63;5003366;28;11397;-67
2023/01/31 11:00:23;;;;;;;;;5.00;2.00;;;;;7.31;82.87;101944.69;5003562;28;10795;-68
2023/01/31 11:02:49;;;;;;;;;5.75;4.50;;;;;7.35;82.31;101952.28;5003452;28;10670;-67
2023/01/31 11:05:20;;;;;;;;;3.25;2.75;;;;;7.36;82.53;101955.81;5006741;28;10796;-67
2023/01/31 11:07:46;;;;;;;;;6.50;2.00;;;;;7.33;82.24;101959.66;5011653;28;11349;-67
2023/01/31 11:10:22;;;;;;;;;8.25;5.50;;;;;7.37;82.58;101952.13;5010454;28;10819;-68
2023/01/31 11:13:03;;;;;;;;;1.50;1.50;;;;;7.36;82.08;101959.34;5013452;28;10810;-68
2023/01/31 11:15:41;;;;;;;;;6.00;4.75;;;;;7.38;82.40;101953.84;5011012;28;10768;-68
2023/01/31 11:18:16;;;;;;;;;4.50;2.00;;;;;7.39;81.95;101956.38;5011827;28;10778;-68
2023/01/31 11:20:46;;;;;;;;;2.25;1.50;;;;;7.42;81.67;101952.56;5014132;28;10776;-68
2023/01/31 11:23:16;;;;;;;;;7.00;4.75;;;;;7.40;82.30;101944.66;5013203;28;10833;-68
2023/01/31 11:25:49;;;;;;;;;2.00;2.00;;;;;7.45;82.28;101944.22;5011393;28;10744;-69
2023/01/31 11:28:20;;;;;;;;;1.25;0.25;;;;;7.49;81.93;101940.25;5011799;28;10687;-68
2023/01/31 11:30:50;;;;;;;;;2.00;2.00;;;;;7.46;82.08;101945.09;5013166;28;10772;-70
2023/01/31 11:33:55;;;;;;;;;2.00;2.00;;;;;7.39;82.38;101937.63;5005384;28;10681;-67
2023/01/31 11:36:23;;;;;;;;;9.00;3.25;;;;;7.48;81.94;101935.06;5000250;28;11536;-67
2023/01/31 11:38:49;;;;;;;;;1.25;1.25;;;;;7.53;81.80;101940.81;5005707;28;10665;-68
2023/01/31 11:41:34;;;;;;;;;8.75;5.00;;;;;7.60;81.86;101936.56;5005654;28;10709;-68
2023/01/31 11:44:11;;;;;;;;;2.00;2.00;;;;;7.61;81.33;101930.19;5002305;28;10724;-65
2023/01/31 11:46:49;;;;;;;;;4.25;2.25;;;;;7.64;81.40;101921.88;5004024;28;10719;-68
2023/01/31 11:49:28;;;;;;;;;4.00;2.00;;;;;7.65;81.80;101907.47;5005910;28;10608;-68
2023/01/31 11:52:01;;;;;;;;;7.25;3.50;;;;;7.65;81.78;101900.25;5006081;28;10548;-68
2023/01/31 11:54:31;;;;;;;;;7.75;4.00;;;;;7.67;81.58;101889.41;5004324;28;10755;-67
2023/01/31 11:57:00;;;;;;;;;2.75;1.00;;;;;7.68;81.92;101889.25;5002026;28;10607;-71
2023/01/31 11:59:29;;;;;;;;;5.00;5.00;;;;;7.76;81.58;101893.88;5005106;28;10646;-66
2023/01/31 12:01:58;;;;;;;;;4.00;4.00;;;;;7.88;81.24;101894.50;5005043;28;10728;-69
2023/01/31 12:04:41;;;;;;;;;1.25;1.25;;;;;7.82;81.18;101885.25;5011350;28;10701;-68